N628WK KMYF-KF70
Flight info
| Callsign | N628WK |
|---|---|
| Flight time | N/A |
| Altitude | 16000 |
| Route | MZB OCN/N0285F150 JESEX |
| Aircraft | EVOT/L-SDFGRWY/S |
Departure
| Time | 2026-04-26 03:39 |
|---|---|
| Airport | Montgomery-Gibbs Executive Airport (KMYF) |
Arrival
| Time | N/A |
|---|---|
| Airport | French Valley Airport (KF70) |
| Time | Latitude | Longitude | Altitude | Speed | Heading |
|---|---|---|---|---|---|
| 2026-04-26 03:35 | 32.81193 | -117.13590 | 423 ft | 0 kts | 24° |
| 2026-04-26 03:36 | 32.81190 | -117.13563 | 423 ft | 9 kts | 88° |
| 2026-04-26 03:36 | 32.81231 | -117.13557 | 423 ft | 7 kts | 87° |
| 2026-04-26 03:37 | 32.81182 | -117.13434 | 424 ft | 20 kts | 114° |
| 2026-04-26 03:37 | 32.81122 | -117.13308 | 425 ft | 10 kts | 116° |
| 2026-04-26 03:37 | 32.81154 | -117.13206 | 425 ft | 15 kts | 60° |
| 2026-04-26 03:37 | 32.81288 | -117.13134 | 426 ft | 23 kts | 314° |
| 2026-04-26 03:38 | 32.81358 | -117.13297 | 425 ft | 28 kts | 298° |
| 2026-04-26 03:38 | 32.81507 | -117.13676 | 423 ft | 73 kts | 295° |
| 2026-04-26 03:38 | 32.81758 | -117.14343 | 437 ft | 100 kts | 292° |
| 2026-04-26 03:38 | 32.82070 | -117.15224 | 744 ft | 133 kts | 287° |
| 2026-04-26 03:39 | 32.82407 | -117.16335 | 1308 ft | 157 kts | 292° |
| 2026-04-26 03:39 | 32.83120 | -117.17386 | 2048 ft | 168 kts | 319° |
| 2026-04-26 03:39 | 32.84042 | -117.18267 | 2669 ft | 181 kts | 318° |
| 2026-04-26 03:39 | 32.85146 | -117.19065 | 3230 ft | 196 kts | 336° |
| 2026-04-26 03:40 | 32.86518 | -117.19237 | 3811 ft | 211 kts | 10° |
| 2026-04-26 03:40 | 32.87882 | -117.18563 | 4457 ft | 215 kts | 20° |
| 2026-04-26 03:40 | 32.89299 | -117.17999 | 4808 ft | 229 kts | 13° |
| 2026-04-26 03:40 | 32.90825 | -117.17821 | 4540 ft | 209 kts | 343° |
| 2026-04-26 03:41 | 32.91956 | -117.18732 | 4014 ft | 199 kts | 304° |
| 2026-04-26 03:41 | 32.92361 | -117.20268 | 3548 ft | 191 kts | 281° |
| 2026-04-26 03:41 | 32.92617 | -117.21751 | 3183 ft | 184 kts | 288° |
| 2026-04-26 03:41 | 32.93126 | -117.23132 | 2715 ft | 185 kts | 308° |
| 2026-04-26 03:42 | 32.94233 | -117.23804 | 2502 ft | 177 kts | 353° |
| 2026-04-26 03:42 | 32.95428 | -117.23741 | 2469 ft | 170 kts | 1° |
| 2026-04-26 03:42 | 32.96618 | -117.23640 | 2464 ft | 171 kts | 1° |
| 2026-04-26 03:42 | 32.98037 | -117.23511 | 2470 ft | 233 kts | 2° |
| 2026-04-26 03:43 | 32.99718 | -117.23385 | 2471 ft | 247 kts | 2° |
| 2026-04-26 03:43 | 33.01454 | -117.23476 | 2467 ft | 252 kts | 355° |
| 2026-04-26 03:43 | 33.03212 | -117.23603 | 2465 ft | 252 kts | 355° |
| 2026-04-26 03:43 | 33.04972 | -117.23673 | 2440 ft | 252 kts | 5° |
| 2026-04-26 03:44 | 33.06506 | -117.22733 | 2434 ft | 257 kts | 43° |
| 2026-04-26 03:44 | 33.07425 | -117.20907 | 2463 ft | 258 kts | 73° |
| 2026-04-26 03:44 | 33.07953 | -117.18891 | 2478 ft | 258 kts | 70° |
| 2026-04-26 03:44 | 33.08609 | -117.16899 | 2471 ft | 255 kts | 66° |
| 2026-04-26 03:45 | 33.09128 | -117.15022 | 2451 ft | 220 kts | 71° |
| 2026-04-26 03:45 | 33.09833 | -117.13552 | 2436 ft | 198 kts | 40° |
| 2026-04-26 03:45 | 33.11034 | -117.12992 | 2445 ft | 178 kts | 1° |
| 2026-04-26 03:45 | 33.12212 | -117.13182 | 2450 ft | 163 kts | 342° |
| 2026-04-26 03:46 | 33.13273 | -117.13551 | 2456 ft | 154 kts | 341° |
| 2026-04-26 03:46 | 33.14271 | -117.13894 | 2456 ft | 147 kts | 341° |
| 2026-04-26 03:46 | 33.15209 | -117.14299 | 2452 ft | 138 kts | 322° |
| 2026-04-26 03:47 | 33.15463 | -117.16198 | 2460 ft | 125 kts | 233° |
| 2026-04-26 03:47 | 33.14724 | -117.16684 | 2460 ft | 125 kts | 189° |
| 2026-04-26 03:47 | 33.13891 | -117.16403 | 2462 ft | 128 kts | 144° |
| 2026-04-26 03:47 | 33.13432 | -117.15514 | 2461 ft | 130 kts | 100° |
| 2026-04-26 03:48 | 33.13580 | -117.14481 | 2461 ft | 128 kts | 56° |
| 2026-04-26 03:48 | 33.14396 | -117.13808 | 2577 ft | 186 kts | 12° |
| 2026-04-26 03:48 | 33.15610 | -117.13397 | 4423 ft | 183 kts | 10° |
| 2026-04-26 03:48 | 33.16729 | -117.12991 | 6089 ft | 184 kts | 11° |
| 2026-04-26 03:49 | 33.18150 | -117.12503 | 6556 ft | 246 kts | 11° |
| 2026-04-26 03:49 | 33.19693 | -117.11957 | 8204 ft | 239 kts | 10° |
| 2026-04-26 03:49 | 33.21462 | -117.11324 | 8434 ft | 291 kts | 11° |
| 2026-04-26 03:49 | 33.23482 | -117.10637 | 8459 ft | 293 kts | 11° |
| 2026-04-26 03:50 | 33.25259 | -117.09687 | 8446 ft | 277 kts | 36° |
| 2026-04-26 03:50 | 33.26242 | -117.07828 | 8444 ft | 264 kts | 76° |
| 2026-04-26 03:50 | 33.26456 | -117.05708 | 8454 ft | 251 kts | 86° |
| 2026-04-26 03:50 | 33.26623 | -117.03668 | 8455 ft | 242 kts | 86° |
| 2026-04-26 03:51 | 33.26784 | -117.01676 | 8454 ft | 236 kts | 86° |
| 2026-04-26 03:51 | 33.26742 | -116.99755 | 8445 ft | 230 kts | 96° |
| 2026-04-26 03:51 | 33.26643 | -116.97823 | 8455 ft | 248 kts | 96° |
| 2026-04-26 03:51 | 33.26499 | -116.95588 | 8455 ft | 293 kts | 96° |
| 2026-04-26 03:52 | 33.26334 | -116.93070 | 8457 ft | 307 kts | 96° |
| 2026-04-26 03:52 | 33.26205 | -116.90729 | 9560 ft | 262 kts | 96° |
| 2026-04-26 03:52 | 33.26219 | -116.88557 | 9984 ft | 259 kts | 82° |
| 2026-04-26 03:52 | 33.26539 | -116.86459 | 10310 ft | 259 kts | 78° |
| 2026-04-26 03:53 | 33.27466 | -116.84598 | 10433 ft | 267 kts | 46° |
| 2026-04-26 03:53 | 33.28502 | -116.82722 | 10435 ft | 278 kts | 56° |
| 2026-04-26 03:53 | 33.29552 | -116.80750 | 10562 ft | 281 kts | 56° |
| 2026-04-26 03:53 | 33.30579 | -116.78831 | 10974 ft | 272 kts | 56° |
| 2026-04-26 03:54 | 33.31764 | -116.77093 | 11306 ft | 263 kts | 33° |
| 2026-04-26 03:54 | 33.33431 | -116.76382 | 11397 ft | 254 kts | 355° |
| 2026-04-26 03:54 | 33.35190 | -116.76678 | 11415 ft | 263 kts | 341° |
| 2026-04-26 03:54 | 33.37052 | -116.77112 | 11407 ft | 282 kts | 341° |
| 2026-04-26 03:55 | 33.39002 | -116.77577 | 11099 ft | 292 kts | 341° |
| 2026-04-26 03:55 | 33.40998 | -116.78098 | 10779 ft | 286 kts | 337° |
| 2026-04-26 03:55 | 33.42574 | -116.79349 | 10456 ft | 263 kts | 304° |
| 2026-04-26 03:55 | 33.43441 | -116.81179 | 10413 ft | 246 kts | 291° |
| 2026-04-26 03:56 | 33.44194 | -116.82940 | 10411 ft | 235 kts | 290° |
| 2026-04-26 03:56 | 33.44939 | -116.84672 | 10419 ft | 228 kts | 291° |
| 2026-04-26 03:56 | 33.45885 | -116.86194 | 10422 ft | 233 kts | 310° |
| 2026-04-26 03:56 | 33.47084 | -116.87462 | 10427 ft | 230 kts | 311° |
| 2026-04-26 03:57 | 33.48282 | -116.88723 | 10434 ft | 228 kts | 311° |
| 2026-04-26 03:57 | 33.49471 | -116.89972 | 10435 ft | 226 kts | 311° |
| 2026-04-26 03:57 | 33.50657 | -116.91218 | 10440 ft | 225 kts | 311° |
| 2026-04-26 03:57 | 33.51839 | -116.92463 | 10225 ft | 233 kts | 311° |
| 2026-04-26 03:58 | 33.53073 | -116.93791 | 10010 ft | 238 kts | 311° |
| 2026-04-26 03:58 | 33.54289 | -116.95109 | 9946 ft | 235 kts | 311° |
| 2026-04-26 03:58 | 33.55499 | -116.96406 | 9832 ft | 232 kts | 312° |
| 2026-04-26 03:58 | 33.56632 | -116.97649 | 9458 ft | 215 kts | 311° |
| 2026-04-26 03:59 | 33.57910 | -116.98560 | 9082 ft | 213 kts | 331° |
| 2026-04-26 03:59 | 33.59282 | -116.99143 | 8708 ft | 206 kts | 336° |
| 2026-04-26 03:59 | 33.60637 | -116.99641 | 8327 ft | 200 kts | 338° |
| 2026-04-26 03:59 | 33.61963 | -117.00102 | 7950 ft | 196 kts | 339° |
| 2026-04-26 04:00 | 33.63253 | -117.00545 | 7575 ft | 192 kts | 339° |
| 2026-04-26 04:00 | 33.64531 | -117.00980 | 7198 ft | 193 kts | 339° |
| 2026-04-26 04:00 | 33.65858 | -117.01434 | 6826 ft | 202 kts | 340° |
| 2026-04-26 04:00 | 33.67240 | -117.01905 | 6453 ft | 208 kts | 341° |
| 2026-04-26 04:01 | 33.68721 | -117.02409 | 6094 ft | 239 kts | 341° |
| 2026-04-26 04:01 | 33.70377 | -117.02973 | 5980 ft | 254 kts | 341° |
| 2026-04-26 04:01 | 33.72098 | -117.03557 | 5959 ft | 250 kts | 342° |
| 2026-04-26 04:01 | 33.73702 | -117.04101 | 5953 ft | 229 kts | 342° |
| 2026-04-26 04:02 | 33.75183 | -117.04605 | 5953 ft | 214 kts | 341° |
| 2026-04-26 04:02 | 33.76566 | -117.05076 | 5950 ft | 196 kts | 341° |
| 2026-04-26 04:02 | 33.77843 | -117.05513 | 5948 ft | 184 kts | 341° |